Hidrolina, Brazil
Current Conditions -  °F | °C
As of 6:00 PM on Monday 24 Nov 2014 (Local Time) from SBAN Reporting Station
Few Clouds Few Clouds  
Wind Chill: 81°   Ceiling: Unl
Heat Index: 81°   Visibility: 6mi
Dew Point: 61°   Wind: 7mph
Humidity: 51%   Direction: 20°NNE
Pressure: 30"   Gusts: NA
Location:  14.72°S, 49.46°W
Report Text: SBAN 242000Z 02006KT 9999 FEW040 27/16 Q1016
Loading
Personal Weather Stations






























Interactive Weather Map New forecast layout! Learn more

10-Day Weather Forecast

Advertisements
Track Severe Weather on mobile